Terminal Aerodrome Forecast
Issued by NWS

Home | Current Version | Previous Version | Text Only | Print | Product List | Glossary On
Versions: 1 2 3 4 5 6 7 8 9 10 11 12 13 14 15 16
000
FTUS43 KDTX 170528
TAFMBS
TAF
KMBS 170528Z 1706/1806 09007KT 2SM BR OVC004
      TEMPO 1706/1708 4SM -FZRA BR OVC008
     FM170800 09005KT 2SM -RA BR OVC008
     FM171000 09007KT 1SM -SHRA BR OVC004
     FM171400 06007KT 2SM BR OVC004
     FM171900 30010KT 4SM BR OVC008=

USA.gov is the U.S. government's official web portal to all federal, state and local government web resources and services.